Santa Ponca, Spain
Current Conditions -  °F | °C
As of 6:30 PM on Thursday 18 Dec 2014 (Local Time) from LEPA Reporting Station
Clear Clear  
Wind Chill: 57°   Ceiling: Unl
Heat Index: 57°   Visibility: 6mi
Dew Point: 54°   Wind: 0mph
Humidity: 88%   Direction: NA
Pressure: 30.27"   Gusts: NA
Location:  39.51°N, 2.48°E
Report Text: LEPA 181730Z 00000KT CAVOK 14/12 Q1025 NOSIG
Loading
Personal Weather Stations






























Interactive Weather Map New forecast layout! Learn more

10-Day Weather Forecast

Advertisements
Track Severe Weather on mobile